sensor_id;sensor_type;location;lat;lon;timestamp;temperature;humidity
10249;DHT22;5169;50.560;9.714;2023-06-26T00:00:49;20.60;99.90
10249;DHT22;5169;50.560;9.714;2023-06-26T00:03:14;20.40;99.90
10249;DHT22;5169;50.560;9.714;2023-06-26T00:05:41;20.30;99.90
10249;DHT22;5169;50.560;9.714;2023-06-26T00:08:07;20.20;99.90
10249;DHT22;5169;50.560;9.714;2023-06-26T00:10:36;20.00;99.90
10249;DHT22;5169;50.560;9.714;2023-06-26T00:13:01;20.10;99.90
10249;DHT22;5169;50.560;9.714;2023-06-26T00:15:28;20.10;99.90
10249;DHT22;5169;50.560;9.714;2023-06-26T00:17:59;20.10;99.90
10249;DHT22;5169;50.560;9.714;2023-06-26T00:20:24;20.20;99.90
10249;DHT22;5169;50.560;9.714;2023-06-26T00:22:52;20.20;99.90
10249;DHT22;5169;50.560;9.714;2023-06-26T00:25:20;20.40;99.90
10249;DHT22;5169;50.560;9.714;2023-06-26T00:27:48;20.50;99.90
10249;DHT22;5169;50.560;9.714;2023-06-26T00:30:16;20.50;99.90
10249;DHT22;5169;50.560;9.714;2023-06-26T00:32:49;20.40;99.90
10249;DHT22;5169;50.560;9.714;2023-06-26T00:35:20;20.20;99.90
10249;DHT22;5169;50.560;9.714;2023-06-26T00:37:49;20.00;99.90
10249;DHT22;5169;50.560;9.714;2023-06-26T00:40:16;19.80;99.90
10249;DHT22;5169;50.560;9.714;2023-06-26T00:42:44;19.80;99.90
10249;DHT22;5169;50.560;9.714;2023-06-26T00:45:13;19.70;99.90
10249;DHT22;5169;50.560;9.714;2023-06-26T00:47:39;19.60;99.90
10249;DHT22;5169;50.560;9.714;2023-06-26T00:50:05;19.60;99.90
10249;DHT22;5169;50.560;9.714;2023-06-26T00:52:31;19.60;99.90
10249;DHT22;5169;50.560;9.714;2023-06-26T00:55:01;19.60;99.90
10249;DHT22;5169;50.560;9.714;2023-06-26T00:57:27;19.40;99.90
10249;DHT22;5169;50.560;9.714;2023-06-26T00:59:52;19.40;99.90
10249;DHT22;5169;50.560;9.714;2023-06-26T01:02:18;19.30;99.90
10249;DHT22;5169;50.560;9.714;2023-06-26T01:04:49;19.50;99.90
10249;DHT22;5169;50.560;9.714;2023-06-26T01:07:16;19.50;99.90
10249;DHT22;5169;50.560;9.714;2023-06-26T01:09:45;19.50;99.90
10249;DHT22;5169;50.560;9.714;2023-06-26T01:12:14;19.40;99.90
10249;DHT22;5169;50.560;9.714;2023-06-26T01:14:45;19.30;99.90
10249;DHT22;5169;50.560;9.714;2023-06-26T01:17:13;19.20;99.90
10249;DHT22;5169;50.560;9.714;2023-06-26T01:19:41;19.20;99.90
10249;DHT22;5169;50.560;9.714;2023-06-26T01:27:30;19.10;99.90
10249;DHT22;5169;50.560;9.714;2023-06-26T01:30:01;19.10;99.90
10249;DHT22;5169;50.560;9.714;2023-06-26T01:32:31;19.10;99.90
10249;DHT22;5169;50.560;9.714;2023-06-26T01:34:58;19.20;99.90
10249;DHT22;5169;50.560;9.714;2023-06-26T01:37:24;19.40;99.90
10249;DHT22;5169;50.560;9.714;2023-06-26T01:39:50;19.40;99.90
10249;DHT22;5169;50.560;9.714;2023-06-26T01:42:16;19.40;99.90
10249;DHT22;5169;50.560;9.714;2023-06-26T01:44:45;19.40;99.90
10249;DHT22;5169;50.560;9.714;2023-06-26T01:47:17;19.30;99.90
10249;DHT22;5169;50.560;9.714;2023-06-26T01:50:09;19.20;99.90
10249;DHT22;5169;50.560;9.714;2023-06-26T01:55:32;19.30;99.90
10249;DHT22;5169;50.560;9.714;2023-06-26T01:58:01;19.30;99.90
10249;DHT22;5169;50.560;9.714;2023-06-26T02:00:34;19.30;99.90
10249;DHT22;5169;50.560;9.714;2023-06-26T02:03:00;19.10;99.90
10249;DHT22;5169;50.560;9.714;2023-06-26T02:05:25;19.00;99.90
10249;DHT22;5169;50.560;9.714;2023-06-26T02:07:51;18.90;99.90
10249;DHT22;5169;50.560;9.714;2023-06-26T02:10:24;18.80;99.90
10249;DHT22;5169;50.560;9.714;2023-06-26T02:12:52;18.70;99.90
10249;DHT22;5169;50.560;9.714;2023-06-26T02:15:20;18.80;99.90
10249;DHT22;5169;50.560;9.714;2023-06-26T02:17:46;18.90;99.90
10249;DHT22;5169;50.560;9.714;2023-06-26T02:20:19;19.00;99.90
10249;DHT22;5169;50.560;9.714;2023-06-26T02:22:47;18.90;99.90
10249;DHT22;5169;50.560;9.714;2023-06-26T02:25:12;18.80;99.90
10249;DHT22;5169;50.560;9.714;2023-06-26T02:27:41;18.70;99.90
10249;DHT22;5169;50.560;9.714;2023-06-26T02:30:09;18.80;99.90
10249;DHT22;5169;50.560;9.714;2023-06-26T02:32:35;18.70;99.90
10249;DHT22;5169;50.560;9.714;2023-06-26T02:35:05;18.80;99.90
10249;DHT22;5169;50.560;9.714;2023-06-26T02:37:31;18.60;99.90
10249;DHT22;5169;50.560;9.714;2023-06-26T02:39:57;18.50;99.90
10249;DHT22;5169;50.560;9.714;2023-06-26T02:42:25;18.50;99.90
10249;DHT22;5169;50.560;9.714;2023-06-26T02:44:51;18.50;99.90
10249;DHT22;5169;50.560;9.714;2023-06-26T02:47:17;18.50;99.90
10249;DHT22;5169;50.560;9.714;2023-06-26T02:49:42;18.50;99.90
10249;DHT22;5169;50.560;9.714;2023-06-26T02:52:08;18.40;99.90
10249;DHT22;5169;50.560;9.714;2023-06-26T02:54:34;18.40;99.90
10249;DHT22;5169;50.560;9.714;2023-06-26T02:57:00;18.40;99.90
10249;DHT22;5169;50.560;9.714;2023-06-26T02:59:25;18.50;99.90
10249;DHT22;5169;50.560;9.714;2023-06-26T03:01:51;18.50;99.90
10249;DHT22;5169;50.560;9.714;2023-06-26T03:04:17;18.50;99.90
10249;DHT22;5169;50.560;9.714;2023-06-26T03:06:49;18.50;99.90
10249;DHT22;5169;50.560;9.714;2023-06-26T03:09:17;18.50;99.90
10249;DHT22;5169;50.560;9.714;2023-06-26T03:11:45;18.50;99.90
10249;DHT22;5169;50.560;9.714;2023-06-26T03:14:13;18.40;99.90
10249;DHT22;5169;50.560;9.714;2023-06-26T03:16:39;18.40;99.90
10249;DHT22;5169;50.560;9.714;2023-06-26T03:19:09;18.40;99.90
10249;DHT22;5169;50.560;9.714;2023-06-26T03:21:38;18.30;99.90
10249;DHT22;5169;50.560;9.714;2023-06-26T03:24:06;18.30;99.90
10249;DHT22;5169;50.560;9.714;2023-06-26T03:26:35;18.40;99.90
10249;DHT22;5169;50.560;9.714;2023-06-26T03:29:02;18.50;99.90
10249;DHT22;5169;50.560;9.714;2023-06-26T03:31:28;18.60;99.90
10249;DHT22;5169;50.560;9.714;2023-06-26T03:33:53;18.60;99.90
10249;DHT22;5169;50.560;9.714;2023-06-26T03:36:19;18.60;99.90
10249;DHT22;5169;50.560;9.714;2023-06-26T03:38:44;18.60;99.90
10249;DHT22;5169;50.560;9.714;2023-06-26T03:41:16;18.60;99.90
10249;DHT22;5169;50.560;9.714;2023-06-26T03:43:42;18.60;99.90
10249;DHT22;5169;50.560;9.714;2023-06-26T03:46:07;18.80;99.90
10249;DHT22;5169;50.560;9.714;2023-06-26T03:48:33;18.90;99.90
10249;DHT22;5169;50.560;9.714;2023-06-26T03:51:04;19.00;99.90
10249;DHT22;5169;50.560;9.714;2023-06-26T03:53:33;19.00;99.90
10249;DHT22;5169;50.560;9.714;2023-06-26T03:56:01;19.00;99.90
10249;DHT22;5169;50.560;9.714;2023-06-26T03:58:27;19.00;99.90
10249;DHT22;5169;50.560;9.714;2023-06-26T04:00:52;18.80;99.90
10249;DHT22;5169;50.560;9.714;2023-06-26T04:03:23;18.80;99.90
10249;DHT22;5169;50.560;9.714;2023-06-26T04:05:49;18.80;99.90
10249;DHT22;5169;50.560;9.714;2023-06-26T04:08:17;18.80;99.90
10249;DHT22;5169;50.560;9.714;2023-06-26T04:10:45;18.70;99.90
10249;DHT22;5169;50.560;9.714;2023-06-26T04:13:11;18.70;99.90
10249;DHT22;5169;50.560;9.714;2023-06-26T04:15:45;18.60;99.90
10249;DHT22;5169;50.560;9.714;2023-06-26T04:18:13;18.60;99.90
10249;DHT22;5169;50.560;9.714;2023-06-26T04:23:31;18.70;99.90
10249;DHT22;5169;50.560;9.714;2023-06-26T04:25:59;18.80;99.90
10249;DHT22;5169;50.560;9.714;2023-06-26T04:28:33;18.90;99.90
10249;DHT22;5169;50.560;9.714;2023-06-26T04:31:06;19.00;99.90
10249;DHT22;5169;50.560;9.714;2023-06-26T04:33:32;19.00;99.90
10249;DHT22;5169;50.560;9.714;2023-06-26T04:36:00;19.00;99.90
10249;DHT22;5169;50.560;9.714;2023-06-26T04:38:32;19.00;99.90
10249;DHT22;5169;50.560;9.714;2023-06-26T04:40:58;19.10;99.90
10249;DHT22;5169;50.560;9.714;2023-06-26T04:43:27;19.30;99.90
10249;DHT22;5169;50.560;9.714;2023-06-26T04:45:52;19.30;99.90
10249;DHT22;5169;50.560;9.714;2023-06-26T04:48:22;19.40;99.90
10249;DHT22;5169;50.560;9.714;2023-06-26T04:50:47;19.40;99.90
10249;DHT22;5169;50.560;9.714;2023-06-26T04:53:23;19.30;99.90
10249;DHT22;5169;50.560;9.714;2023-06-26T04:55:58;19.40;99.90
10249;DHT22;5169;50.560;9.714;2023-06-26T04:58:23;19.50;99.90
10249;DHT22;5169;50.560;9.714;2023-06-26T05:00:49;19.60;99.90
10249;DHT22;5169;50.560;9.714;2023-06-26T05:03:22;19.60;99.90
10249;DHT22;5169;50.560;9.714;2023-06-26T05:05:50;19.60;99.90
10249;DHT22;5169;50.560;9.714;2023-06-26T05:08:24;19.60;99.90
10249;DHT22;5169;50.560;9.714;2023-06-26T05:10:55;19.70;99.90
10249;DHT22;5169;50.560;9.714;2023-06-26T05:13:26;19.70;99.90
10249;DHT22;5169;50.560;9.714;2023-06-26T05:15:58;20.00;99.90
10249;DHT22;5169;50.560;9.714;2023-06-26T05:18:24;20.00;99.90
10249;DHT22;5169;50.560;9.714;2023-06-26T05:20:52;20.10;99.90
10249;DHT22;5169;50.560;9.714;2023-06-26T05:23:17;20.30;99.90
10249;DHT22;5169;50.560;9.714;2023-06-26T05:25:49;20.40;99.90
10249;DHT22;5169;50.560;9.714;2023-06-26T05:28:15;20.50;99.90
10249;DHT22;5169;50.560;9.714;2023-06-26T05:30:52;20.60;99.90
10249;DHT22;5169;50.560;9.714;2023-06-26T05:33:26;20.70;99.90
10249;DHT22;5169;50.560;9.714;2023-06-26T05:35:53;20.80;99.90
10249;DHT22;5169;50.560;9.714;2023-06-26T05:38:20;20.90;99.90
10249;DHT22;5169;50.560;9.714;2023-06-26T05:40:47;21.00;99.90
10249;DHT22;5169;50.560;9.714;2023-06-26T05:43:13;21.20;99.90
10249;DHT22;5169;50.560;9.714;2023-06-26T05:45:49;21.50;99.90
10249;DHT22;5169;50.560;9.714;2023-06-26T05:48:14;22.40;99.90
10249;DHT22;5169;50.560;9.714;2023-06-26T05:50:41;23.50;99.70
10249;DHT22;5169;50.560;9.714;2023-06-26T05:53:16;24.40;97.90
10249;DHT22;5169;50.560;9.714;2023-06-26T05:55:42;25.50;95.70
10249;DHT22;5169;50.560;9.714;2023-06-26T05:58:15;26.10;94.10
10249;DHT22;5169;50.560;9.714;2023-06-26T06:00:41;26.40;93.60
10249;DHT22;5169;50.560;9.714;2023-06-26T06:03:11;26.70;92.80
10249;DHT22;5169;50.560;9.714;2023-06-26T06:05:39;26.60;92.60
10249;DHT22;5169;50.560;9.714;2023-06-26T06:08:07;26.70;91.90
10249;DHT22;5169;50.560;9.714;2023-06-26T06:10:35;26.90;91.80
10249;DHT22;5169;50.560;9.714;2023-06-26T06:13:03;27.90;90.60
10249;DHT22;5169;50.560;9.714;2023-06-26T06:15:29;28.70;89.80
10249;DHT22;5169;50.560;9.714;2023-06-26T06:17:54;28.90;88.10
10249;DHT22;5169;50.560;9.714;2023-06-26T06:20:26;28.90;87.80
10249;DHT22;5169;50.560;9.714;2023-06-26T06:22:54;28.70;86.40
10249;DHT22;5169;50.560;9.714;2023-06-26T06:25:25;28.50;86.60
10249;DHT22;5169;50.560;9.714;2023-06-26T06:27:51;27.90;88.00
10249;DHT22;5169;50.560;9.714;2023-06-26T06:30:16;28.00;88.70
10249;DHT22;5169;50.560;9.714;2023-06-26T06:32:42;28.00;89.70
10249;DHT22;5169;50.560;9.714;2023-06-26T06:35:40;27.80;90.20
10249;DHT22;5169;50.560;9.714;2023-06-26T06:38:08;27.70;90.40
10249;DHT22;5169;50.560;9.714;2023-06-26T06:40:42;27.90;90.60
10249;DHT22;5169;50.560;9.714;2023-06-26T06:43:07;27.80;90.90
10249;DHT22;5169;50.560;9.714;2023-06-26T06:45:36;27.80;90.50
10249;DHT22;5169;50.560;9.714;2023-06-26T06:48:14;27.60;90.60
10249;DHT22;5169;50.560;9.714;2023-06-26T06:50:44;27.40;91.10
10249;DHT22;5169;50.560;9.714;2023-06-26T06:53:13;27.20;91.30
10249;DHT22;5169;50.560;9.714;2023-06-26T06:55:39;26.80;91.50
10249;DHT22;5169;50.560;9.714;2023-06-26T06:58:05;26.60;91.50
10249;DHT22;5169;50.560;9.714;2023-06-26T07:00:30;26.40;92.00
10249;DHT22;5169;50.560;9.714;2023-06-26T07:03:03;26.30;92.50
10249;DHT22;5169;50.560;9.714;2023-06-26T07:05:29;26.40;93.00
10249;DHT22;5169;50.560;9.714;2023-06-26T07:08:02;26.20;92.30
10249;DHT22;5169;50.560;9.714;2023-06-26T07:10:28;26.40;92.10
10249;DHT22;5169;50.560;9.714;2023-06-26T07:12:54;26.40;91.70
10249;DHT22;5169;50.560;9.714;2023-06-26T07:15:24;26.40;91.90
10249;DHT22;5169;50.560;9.714;2023-06-26T07:17:50;26.40;91.80
10249;DHT22;5169;50.560;9.714;2023-06-26T07:20:16;26.30;91.40
10249;DHT22;5169;50.560;9.714;2023-06-26T07:22:42;26.40;91.60
10249;DHT22;5169;50.560;9.714;2023-06-26T07:25:14;26.00;92.10
10249;DHT22;5169;50.560;9.714;2023-06-26T07:27:41;25.90;92.70
10249;DHT22;5169;50.560;9.714;2023-06-26T07:30:07;25.90;92.40
10249;DHT22;5169;50.560;9.714;2023-06-26T07:32:37;25.90;92.20
10249;DHT22;5169;50.560;9.714;2023-06-26T07:35:03;25.90;92.80
10249;DHT22;5169;50.560;9.714;2023-06-26T07:37:31;25.80;92.60
10249;DHT22;5169;50.560;9.714;2023-06-26T07:39:57;25.90;93.10
10249;DHT22;5169;50.560;9.714;2023-06-26T07:42:30;26.00;93.20
10249;DHT22;5169;50.560;9.714;2023-06-26T07:44:55;26.10;93.00
10249;DHT22;5169;50.560;9.714;2023-06-26T07:47:21;26.30;93.20
10249;DHT22;5169;50.560;9.714;2023-06-26T07:49:50;26.50;91.90
10249;DHT22;5169;50.560;9.714;2023-06-26T07:52:16;26.70;92.00
10249;DHT22;5169;50.560;9.714;2023-06-26T07:54:41;26.90;91.30
10249;DHT22;5169;50.560;9.714;2023-06-26T07:57:07;27.00;91.40
10249;DHT22;5169;50.560;9.714;2023-06-26T07:59:34;27.20;91.00
10249;DHT22;5169;50.560;9.714;2023-06-26T08:02:04;27.30;90.80
10249;DHT22;5169;50.560;9.714;2023-06-26T08:04:30;27.30;91.40
10249;DHT22;5169;50.560;9.714;2023-06-26T08:06:58;27.60;90.40
10249;DHT22;5169;50.560;9.714;2023-06-26T08:09:30;27.50;89.10
10249;DHT22;5169;50.560;9.714;2023-06-26T08:11:56;27.20;89.70
10249;DHT22;5169;50.560;9.714;2023-06-26T08:14:22;27.20;90.40
10249;DHT22;5169;50.560;9.714;2023-06-26T08:16:51;27.50;90.20
10249;DHT22;5169;50.560;9.714;2023-06-26T08:19:20;27.90;88.50
10249;DHT22;5169;50.560;9.714;2023-06-26T08:21:47;27.90;87.70
10249;DHT22;5169;50.560;9.714;2023-06-26T08:24:18;28.30;88.70
10249;DHT22;5169;50.560;9.714;2023-06-26T08:26:45;28.70;87.10
10249;DHT22;5169;50.560;9.714;2023-06-26T08:29:15;28.70;86.10
10249;DHT22;5169;50.560;9.714;2023-06-26T08:31:42;28.80;86.90
10249;DHT22;5169;50.560;9.714;2023-06-26T08:34:08;28.50;84.70
10249;DHT22;5169;50.560;9.714;2023-06-26T08:36:34;28.40;84.90
10249;DHT22;5169;50.560;9.714;2023-06-26T08:39:08;28.20;86.20
10249;DHT22;5169;50.560;9.714;2023-06-26T08:41:40;28.40;87.70
10249;DHT22;5169;50.560;9.714;2023-06-26T08:44:07;28.60;87.90
10249;DHT22;5169;50.560;9.714;2023-06-26T08:46:33;28.70;81.80
10249;DHT22;5169;50.560;9.714;2023-06-26T08:52:13;29.20;81.50
10249;DHT22;5169;50.560;9.714;2023-06-26T08:54:46;29.30;80.80
10249;DHT22;5169;50.560;9.714;2023-06-26T08:57:19;29.40;78.50
10249;DHT22;5169;50.560;9.714;2023-06-26T08:59:47;29.50;79.70
10249;DHT22;5169;50.560;9.714;2023-06-26T09:02:20;29.70;76.80
10249;DHT22;5169;50.560;9.714;2023-06-26T09:04:58;29.50;77.60
10249;DHT22;5169;50.560;9.714;2023-06-26T09:07:23;29.80;78.30
10249;DHT22;5169;50.560;9.714;2023-06-26T09:09:51;30.00;78.60
10249;DHT22;5169;50.560;9.714;2023-06-26T09:12:20;30.10;76.20
10249;DHT22;5169;50.560;9.714;2023-06-26T09:14:47;30.30;77.00
10249;DHT22;5169;50.560;9.714;2023-06-26T09:17:15;30.50;75.30
10249;DHT22;5169;50.560;9.714;2023-06-26T09:19:45;30.60;74.60
10249;DHT22;5169;50.560;9.714;2023-06-26T09:22:18;30.90;74.40
10249;DHT22;5169;50.560;9.714;2023-06-26T09:24:44;31.00;71.50
10249;DHT22;5169;50.560;9.714;2023-06-26T09:27:11;31.00;71.80
10249;DHT22;5169;50.560;9.714;2023-06-26T09:29:45;31.00;71.80
10249;DHT22;5169;50.560;9.714;2023-06-26T09:32:18;31.00;72.20
10249;DHT22;5169;50.560;9.714;2023-06-26T09:34:44;31.00;72.60
10249;DHT22;5169;50.560;9.714;2023-06-26T09:37:12;31.20;71.20
10249;DHT22;5169;50.560;9.714;2023-06-26T09:39:46;31.30;71.20
10249;DHT22;5169;50.560;9.714;2023-06-26T09:42:22;31.10;70.40
10249;DHT22;5169;50.560;9.714;2023-06-26T09:44:52;31.00;70.90
10249;DHT22;5169;50.560;9.714;2023-06-26T09:47:19;30.80;70.60
10249;DHT22;5169;50.560;9.714;2023-06-26T09:49:45;30.60;73.80
10249;DHT22;5169;50.560;9.714;2023-06-26T09:52:17;30.70;72.60
10249;DHT22;5169;50.560;9.714;2023-06-26T09:54:43;30.80;70.80
10249;DHT22;5169;50.560;9.714;2023-06-26T09:57:18;31.00;70.80
10249;DHT22;5169;50.560;9.714;2023-06-26T09:59:54;31.40;69.80
10249;DHT22;5169;50.560;9.714;2023-06-26T10:02:19;31.50;69.90
10249;DHT22;5169;50.560;9.714;2023-06-26T10:04:45;31.50;68.30
10249;DHT22;5169;50.560;9.714;2023-06-26T10:07:11;31.50;69.60
10249;DHT22;5169;50.560;9.714;2023-06-26T10:09:42;31.70;68.80
10249;DHT22;5169;50.560;9.714;2023-06-26T10:12:20;31.70;69.10
10249;DHT22;5169;50.560;9.714;2023-06-26T10:14:52;31.60;67.80
10249;DHT22;5169;50.560;9.714;2023-06-26T10:17:19;31.50;66.00
10249;DHT22;5169;50.560;9.714;2023-06-26T10:19:48;31.70;65.60
10249;DHT22;5169;50.560;9.714;2023-06-26T10:22:25;32.00;65.80
10249;DHT22;5169;50.560;9.714;2023-06-26T10:24:58;31.80;66.30
10249;DHT22;5169;50.560;9.714;2023-06-26T10:27:36;31.60;64.80
10249;DHT22;5169;50.560;9.714;2023-06-26T10:30:11;31.20;66.30
10249;DHT22;5169;50.560;9.714;2023-06-26T10:32:48;31.10;67.40
10249;DHT22;5169;50.560;9.714;2023-06-26T10:35:20;31.10;68.10
10249;DHT22;5169;50.560;9.714;2023-06-26T10:38:00;31.20;67.50
10249;DHT22;5169;50.560;9.714;2023-06-26T10:43:11;30.70;68.70
10249;DHT22;5169;50.560;9.714;2023-06-26T10:45:46;30.40;69.20
10249;DHT22;5169;50.560;9.714;2023-06-26T10:48:17;30.30;70.30
10249;DHT22;5169;50.560;9.714;2023-06-26T10:50:43;30.00;70.90
10249;DHT22;5169;50.560;9.714;2023-06-26T10:56:12;30.40;72.70
10249;DHT22;5169;50.560;9.714;2023-06-26T10:58:45;30.00;72.50
10249;DHT22;5169;50.560;9.714;2023-06-26T11:01:19;29.50;73.30
10249;DHT22;5169;50.560;9.714;2023-06-26T11:06:19;29.40;74.60
10249;DHT22;5169;50.560;9.714;2023-06-26T11:08:53;29.10;76.90
10249;DHT22;5169;50.560;9.714;2023-06-26T11:14:23;28.80;77.30
10249;DHT22;5169;50.560;9.714;2023-06-26T11:16:58;28.90;76.80
10249;DHT22;5169;50.560;9.714;2023-06-26T11:19:28;28.90;76.60
10249;DHT22;5169;50.560;9.714;2023-06-26T11:22:06;28.70;77.50
10249;DHT22;5169;50.560;9.714;2023-06-26T11:24:33;28.80;77.90
10249;DHT22;5169;50.560;9.714;2023-06-26T11:27:05;29.60;76.60
10249;DHT22;5169;50.560;9.714;2023-06-26T11:29:33;30.10;75.40
10249;DHT22;5169;50.560;9.714;2023-06-26T11:32:07;31.70;73.40
10249;DHT22;5169;50.560;9.714;2023-06-26T11:34:34;32.30;69.40
10249;DHT22;5169;50.560;9.714;2023-06-26T11:37:00;31.90;71.90
10249;DHT22;5169;50.560;9.714;2023-06-26T11:39:30;31.20;72.90
10249;DHT22;5169;50.560;9.714;2023-06-26T11:41:56;30.60;73.30
10249;DHT22;5169;50.560;9.714;2023-06-26T11:44:21;30.20;75.80
10249;DHT22;5169;50.560;9.714;2023-06-26T11:46:54;30.20;75.30
10249;DHT22;5169;50.560;9.714;2023-06-26T11:49:31;30.10;76.00
10249;DHT22;5169;50.560;9.714;2023-06-26T11:51:56;30.70;75.80
10249;DHT22;5169;50.560;9.714;2023-06-26T11:54:24;31.20;75.00
10249;DHT22;5169;50.560;9.714;2023-06-26T11:56:58;31.20;74.80
10249;DHT22;5169;50.560;9.714;2023-06-26T11:59:32;31.70;76.10
10249;DHT22;5169;50.560;9.714;2023-06-26T12:02:00;31.60;73.00
10249;DHT22;5169;50.560;9.714;2023-06-26T12:04:31;30.90;74.70
10249;DHT22;5169;50.560;9.714;2023-06-26T12:06:56;30.40;76.60
10249;DHT22;5169;50.560;9.714;2023-06-26T12:09:32;29.90;78.80
10249;DHT22;5169;50.560;9.714;2023-06-26T12:12:01;29.90;78.70
10249;DHT22;5169;50.560;9.714;2023-06-26T12:14:35;29.60;79.30
10249;DHT22;5169;50.560;9.714;2023-06-26T12:17:09;29.30;80.60
10249;DHT22;5169;50.560;9.714;2023-06-26T12:19:48;28.90;83.00
10249;DHT22;5169;50.560;9.714;2023-06-26T12:22:18;28.70;83.70
10249;DHT22;5169;50.560;9.714;2023-06-26T12:24:45;28.90;84.80
10249;DHT22;5169;50.560;9.714;2023-06-26T12:27:12;29.10;83.90
10249;DHT22;5169;50.560;9.714;2023-06-26T12:29:51;29.20;84.60
10249;DHT22;5169;50.560;9.714;2023-06-26T12:32:29;29.20;84.10
10249;DHT22;5169;50.560;9.714;2023-06-26T12:34:56;28.90;83.00
10249;DHT22;5169;50.560;9.714;2023-06-26T12:37:22;28.90;84.40
10249;DHT22;5169;50.560;9.714;2023-06-26T12:39:56;28.80;83.60
10249;DHT22;5169;50.560;9.714;2023-06-26T12:42:24;28.80;83.70
10249;DHT22;5169;50.560;9.714;2023-06-26T12:44:56;28.70;84.10
10249;DHT22;5169;50.560;9.714;2023-06-26T12:47:31;28.60;85.30
10249;DHT22;5169;50.560;9.714;2023-06-26T12:49:58;28.60;85.30
10249;DHT22;5169;50.560;9.714;2023-06-26T12:52:32;28.60;84.30
10249;DHT22;5169;50.560;9.714;2023-06-26T12:55:00;28.50;84.50
10249;DHT22;5169;50.560;9.714;2023-06-26T12:57:32;28.20;85.00
10249;DHT22;5169;50.560;9.714;2023-06-26T12:59:58;28.10;84.60
10249;DHT22;5169;50.560;9.714;2023-06-26T13:02:32;28.00;85.60
10249;DHT22;5169;50.560;9.714;2023-06-26T13:04:57;28.30;84.30
10249;DHT22;5169;50.560;9.714;2023-06-26T13:07:23;28.60;83.50
10249;DHT22;5169;50.560;9.714;2023-06-26T13:09:56;29.10;82.70
10249;DHT22;5169;50.560;9.714;2023-06-26T13:12:24;29.10;80.00
10249;DHT22;5169;50.560;9.714;2023-06-26T13:14:57;28.80;80.40
10249;DHT22;5169;50.560;9.714;2023-06-26T13:17:22;28.60;80.80
10249;DHT22;5169;50.560;9.714;2023-06-26T13:19:48;28.50;81.60
10249;DHT22;5169;50.560;9.714;2023-06-26T13:22:13;28.80;81.50
10249;DHT22;5169;50.560;9.714;2023-06-26T13:24:42;28.80;80.70
10249;DHT22;5169;50.560;9.714;2023-06-26T13:27:11;29.10;79.60
10249;DHT22;5169;50.560;9.714;2023-06-26T13:29:37;29.20;79.20
10249;DHT22;5169;50.560;9.714;2023-06-26T13:32:10;29.30;78.90
10249;DHT22;5169;50.560;9.714;2023-06-26T13:34:35;29.30;78.60
10249;DHT22;5169;50.560;9.714;2023-06-26T13:37:01;29.20;79.10
10249;DHT22;5169;50.560;9.714;2023-06-26T13:39:26;29.10;80.20
10249;DHT22;5169;50.560;9.714;2023-06-26T13:41:57;29.10;80.10
10249;DHT22;5169;50.560;9.714;2023-06-26T13:44:23;29.00;79.90
10249;DHT22;5169;50.560;9.714;2023-06-26T13:46:49;28.70;80.90
10249;DHT22;5169;50.560;9.714;2023-06-26T13:49:14;28.50;79.90
10249;DHT22;5169;50.560;9.714;2023-06-26T13:51:43;28.40;80.50
10249;DHT22;5169;50.560;9.714;2023-06-26T13:54:12;28.60;81.20
10249;DHT22;5169;50.560;9.714;2023-06-26T13:56:38;28.70;80.10
10249;DHT22;5169;50.560;9.714;2023-06-26T13:59:11;28.70;81.60
10249;DHT22;5169;50.560;9.714;2023-06-26T14:01:37;28.80;79.50
10249;DHT22;5169;50.560;9.714;2023-06-26T14:04:04;28.70;79.50
10249;DHT22;5169;50.560;9.714;2023-06-26T14:06:38;28.70;80.40
10249;DHT22;5169;50.560;9.714;2023-06-26T14:09:03;28.90;79.00
10249;DHT22;5169;50.560;9.714;2023-06-26T14:11:32;28.90;79.40
10249;DHT22;5169;50.560;9.714;2023-06-26T14:13:58;28.70;77.50
10249;DHT22;5169;50.560;9.714;2023-06-26T14:16:24;28.80;76.90
10249;DHT22;5169;50.560;9.714;2023-06-26T14:18:51;28.80;75.10
10249;DHT22;5169;50.560;9.714;2023-06-26T14:21:20;28.80;73.40
10249;DHT22;5169;50.560;9.714;2023-06-26T14:23:45;29.10;72.20
10249;DHT22;5169;50.560;9.714;2023-06-26T14:26:11;29.10;73.00
10249;DHT22;5169;50.560;9.714;2023-06-26T14:28:39;28.90;71.10
10249;DHT22;5169;50.560;9.714;2023-06-26T14:31:11;28.40;68.50
10249;DHT22;5169;50.560;9.714;2023-06-26T14:33:36;28.20;71.40
10249;DHT22;5169;50.560;9.714;2023-06-26T14:36:02;28.30;71.90
10249;DHT22;5169;50.560;9.714;2023-06-26T14:38:37;28.20;71.50
10249;DHT22;5169;50.560;9.714;2023-06-26T14:41:11;27.90;71.10
10249;DHT22;5169;50.560;9.714;2023-06-26T14:43:36;27.50;72.30
10249;DHT22;5169;50.560;9.714;2023-06-26T14:46:02;27.30;73.10
10249;DHT22;5169;50.560;9.714;2023-06-26T14:48:34;27.40;73.10
10249;DHT22;5169;50.560;9.714;2023-06-26T14:51:02;27.50;72.50
10249;DHT22;5169;50.560;9.714;2023-06-26T14:53:27;27.70;72.10
10249;DHT22;5169;50.560;9.714;2023-06-26T14:56:09;27.80;71.20
10249;DHT22;5169;50.560;9.714;2023-06-26T14:58:34;28.00;70.20
10249;DHT22;5169;50.560;9.714;2023-06-26T15:01:00;28.00;69.60
10249;DHT22;5169;50.560;9.714;2023-06-26T15:03:26;28.10;70.00
10249;DHT22;5169;50.560;9.714;2023-06-26T15:05:51;28.20;68.30
10249;DHT22;5169;50.560;9.714;2023-06-26T15:08:23;28.10;67.30
10249;DHT22;5169;50.560;9.714;2023-06-26T15:10:48;27.90;65.90
10249;DHT22;5169;50.560;9.714;2023-06-26T15:13:14;27.80;67.30
10249;DHT22;5169;50.560;9.714;2023-06-26T15:15:40;27.80;66.40
10249;DHT22;5169;50.560;9.714;2023-06-26T15:18:12;27.40;67.70
10249;DHT22;5169;50.560;9.714;2023-06-26T15:20:38;27.10;66.70
10249;DHT22;5169;50.560;9.714;2023-06-26T15:23:04;26.90;68.70
10249;DHT22;5169;50.560;9.714;2023-06-26T15:25:35;27.00;69.50
10249;DHT22;5169;50.560;9.714;2023-06-26T15:28:03;27.10;66.00
10249;DHT22;5169;50.560;9.714;2023-06-26T15:30:33;27.20;65.50
10249;DHT22;5169;50.560;9.714;2023-06-26T15:33:01;27.20;63.20
10249;DHT22;5169;50.560;9.714;2023-06-26T15:35:38;27.30;65.00
10249;DHT22;5169;50.560;9.714;2023-06-26T15:38:04;27.20;65.50
10249;DHT22;5169;50.560;9.714;2023-06-26T15:40:37;27.10;66.70
10249;DHT22;5169;50.560;9.714;2023-06-26T15:43:04;27.20;66.70
10249;DHT22;5169;50.560;9.714;2023-06-26T15:45:33;27.10;67.50
10249;DHT22;5169;50.560;9.714;2023-06-26T15:48:04;27.00;68.00
10249;DHT22;5169;50.560;9.714;2023-06-26T15:50:29;26.90;68.90
10249;DHT22;5169;50.560;9.714;2023-06-26T15:52:58;26.90;69.30
10249;DHT22;5169;50.560;9.714;2023-06-26T15:55:29;26.80;69.10
10249;DHT22;5169;50.560;9.714;2023-06-26T15:58:00;26.70;66.90
10249;DHT22;5169;50.560;9.714;2023-06-26T16:00:26;26.70;66.40
10249;DHT22;5169;50.560;9.714;2023-06-26T16:02:54;26.70;66.80
10249;DHT22;5169;50.560;9.714;2023-06-26T16:05:22;26.60;67.80
10249;DHT22;5169;50.560;9.714;2023-06-26T16:07:50;26.60;67.20
10249;DHT22;5169;50.560;9.714;2023-06-26T16:10:16;26.30;67.50
10249;DHT22;5169;50.560;9.714;2023-06-26T16:12:41;26.30;68.60
10249;DHT22;5169;50.560;9.714;2023-06-26T16:15:10;26.30;65.60
10249;DHT22;5169;50.560;9.714;2023-06-26T16:17:36;26.10;65.00
10249;DHT22;5169;50.560;9.714;2023-06-26T16:20:12;26.10;64.70